createdAt,value
2017-10-25T00:00:52.580Z,14.60
2017-10-25T00:03:21.858Z,14.60
2017-10-25T00:05:51.892Z,14.50
2017-10-25T00:08:21.158Z,14.50
2017-10-25T00:10:50.445Z,14.50
2017-10-25T00:13:19.703Z,14.60
2017-10-25T00:15:48.976Z,14.60
2017-10-25T00:18:19.184Z,14.50
2017-10-25T00:20:48.610Z,14.50
2017-10-25T00:23:18.663Z,14.40
2017-10-25T00:25:48.353Z,14.50
2017-10-25T00:28:17.756Z,14.40
2017-10-25T00:30:47.049Z,14.50
2017-10-25T00:33:17.098Z,14.40
2017-10-25T00:35:46.386Z,14.40
2017-10-25T00:38:15.629Z,14.40
2017-10-25T00:40:44.955Z,14.30
2017-10-25T00:43:14.218Z,14.20
2017-10-25T00:45:43.663Z,14.20
2017-10-25T00:48:13.788Z,14.20
2017-10-25T00:50:43.227Z,14.20
2017-10-25T00:53:12.455Z,14.20
2017-10-25T00:55:41.717Z,14.20
2017-10-25T00:58:11.098Z,14.20
2017-10-25T01:00:40.406Z,14.20
2017-10-25T01:03:09.670Z,14.30
2017-10-25T01:05:38.970Z,14.30
2017-10-25T01:08:08.421Z,14.30
2017-10-25T01:10:37.698Z,14.20
2017-10-25T01:13:07.742Z,14.30
2017-10-25T01:15:37.002Z,14.30
2017-10-25T01:18:06.428Z,14.30
2017-10-25T01:20:36.469Z,14.20
2017-10-25T01:23:05.808Z,14.20
2017-10-25T01:25:35.087Z,14.30
2017-10-25T01:28:04.360Z,14.30
2017-10-25T01:30:33.632Z,14.30
2017-10-25T01:33:03.666Z,14.30
2017-10-25T01:35:33.918Z,14.20
2017-10-25T01:38:03.237Z,14.10
2017-10-25T01:40:32.491Z,14.10
2017-10-25T01:43:01.895Z,14.10
2017-10-25T01:45:31.918Z,14.10
2017-10-25T01:48:01.291Z,14.10
2017-10-25T01:50:30.547Z,14.10
2017-10-25T01:52:59.812Z,14.10
2017-10-25T01:55:29.091Z,14.20
2017-10-25T01:57:58.343Z,14.20
2017-10-25T02:00:27.631Z,14.20
2017-10-25T02:02:57.674Z,14.20
2017-10-25T02:05:26.997Z,14.20
2017-10-25T02:07:56.274Z,14.20
2017-10-25T02:10:25.620Z,14.20
2017-10-25T02:12:54.871Z,14.20
2017-10-25T02:15:24.247Z,14.20
2017-10-25T02:17:54.367Z,14.20
2017-10-25T02:20:24.395Z,14.20
2017-10-25T02:22:53.690Z,14.20
2017-10-25T02:25:22.955Z,14.20
2017-10-25T02:27:52.211Z,14.10
2017-10-25T02:30:22.242Z,14.20
2017-10-25T02:32:52.011Z,14.20
2017-10-25T02:35:21.291Z,14.20
2017-10-25T02:37:50.562Z,14.20
2017-10-25T02:40:19.817Z,14.20
2017-10-25T02:42:49.855Z,14.00
2017-10-25T02:45:19.885Z,14.00
2017-10-25T02:47:49.158Z,14.00
2017-10-25T02:50:18.666Z,14.10
2017-10-25T02:52:47.916Z,14.20
2017-10-25T02:55:17.182Z,14.20
2017-10-25T02:57:47.288Z,14.10
2017-10-25T03:00:17.422Z,14.10
2017-10-25T03:02:47.448Z,14.10
2017-10-25T03:05:16.702Z,14.20
2017-10-25T03:07:45.960Z,14.20
2017-10-25T03:10:15.409Z,14.20
2017-10-25T03:12:44.662Z,14.20
2017-10-25T03:15:13.982Z,14.20
2017-10-25T03:17:43.262Z,14.20
2017-10-25T03:20:12.643Z,14.30
2017-10-25T03:22:42.669Z,14.20
2017-10-25T03:25:12.023Z,14.20
2017-10-25T03:27:41.296Z,14.30
2017-10-25T03:30:10.631Z,14.20
2017-10-25T03:32:39.920Z,14.30
2017-10-25T03:35:09.269Z,14.30
2017-10-25T03:37:39.384Z,14.30
2017-10-25T03:40:08.654Z,14.30
2017-10-25T03:42:37.935Z,14.40
2017-10-25T03:45:07.182Z,14.40
2017-10-25T03:47:37.217Z,14.20
2017-10-25T03:50:07.324Z,14.20
2017-10-25T03:52:37.604Z,14.20
2017-10-25T03:55:06.960Z,14.20
2017-10-25T03:57:36.259Z,14.30
2017-10-25T04:00:06.305Z,14.40
2017-10-25T04:02:35.574Z,14.40
2017-10-25T04:05:05.075Z,14.30
2017-10-25T04:07:34.350Z,14.40
2017-10-25T04:10:03.795Z,14.40
2017-10-25T04:12:33.818Z,14.40
2017-10-25T04:15:03.089Z,14.40
2017-10-25T04:17:32.372Z,14.40
2017-10-25T04:20:01.811Z,14.50
2017-10-25T04:22:31.856Z,14.50
2017-10-25T04:25:01.242Z,14.50
2017-10-25T04:27:31.380Z,14.50
2017-10-25T04:30:00.642Z,14.50
2017-10-25T04:32:29.972Z,14.60
2017-10-25T04:34:59.986Z,14.50
2017-10-25T04:37:29.378Z,14.50
2017-10-25T04:39:59.392Z,14.60
2017-10-25T04:42:28.813Z,14.60
2017-10-25T04:44:58.973Z,14.60
2017-10-25T04:47:28.214Z,14.60
2017-10-25T04:49:57.574Z,14.60
2017-10-25T04:52:26.848Z,14.70
2017-10-25T04:54:56.113Z,14.70
2017-10-25T04:57:25.378Z,14.70
2017-10-25T04:59:54.743Z,14.70
2017-10-25T05:02:24.884Z,14.80
2017-10-25T05:04:54.123Z,14.80
2017-10-25T05:07:23.379Z,14.80
2017-10-25T05:09:52.771Z,14.80
2017-10-25T05:12:22.805Z,14.80
2017-10-25T05:14:52.183Z,14.80
2017-10-25T05:17:22.328Z,14.90
2017-10-25T05:19:51.603Z,14.90
2017-10-25T05:22:21.624Z,14.90
2017-10-25T05:24:50.895Z,14.90
2017-10-25T05:27:20.162Z,14.90
2017-10-25T05:29:49.422Z,14.80
2017-10-25T05:32:18.703Z,14.80
2017-10-25T05:34:47.959Z,14.80
2017-10-25T05:37:17.234Z,14.90
2017-10-25T05:39:46.496Z,14.90
2017-10-25T05:42:15.734Z,14.90
2017-10-25T05:44:45.854Z,15.00
2017-10-25T05:47:15.885Z,15.00
2017-10-25T05:49:45.151Z,15.00
2017-10-25T05:52:14.571Z,15.00
2017-10-25T05:54:44.620Z,15.00
2017-10-25T05:57:13.915Z,15.00
2017-10-25T05:59:43.159Z,15.00
2017-10-25T06:02:12.416Z,15.00
2017-10-25T06:04:41.696Z,15.00
2017-10-25T06:07:11.706Z,15.00
2017-10-25T06:09:40.954Z,15.00
2017-10-25T06:12:10.219Z,14.90
2017-10-25T06:14:40.225Z,14.90
2017-10-25T06:17:09.486Z,14.90
2017-10-25T06:19:38.780Z,14.90
2017-10-25T06:22:08.027Z,14.90
2017-10-25T06:24:37.351Z,14.90
2017-10-25T06:27:07.461Z,15.00
2017-10-25T06:29:36.893Z,15.00
2017-10-25T06:32:06.289Z,15.00
2017-10-25T06:34:35.826Z,15.10
2017-10-25T06:37:05.812Z,15.10
2017-10-25T06:39:35.106Z,15.10
2017-10-25T06:42:04.413Z,15.20
2017-10-25T06:44:33.692Z,15.20
2017-10-25T06:47:02.945Z,15.10
2017-10-25T06:49:32.214Z,15.10
2017-10-25T06:52:01.495Z,15.10
2017-10-25T06:54:31.526Z,15.00
2017-10-25T06:57:00.776Z,15.00
2017-10-25T06:59:30.017Z,15.10
2017-10-25T07:02:00.080Z,14.90
2017-10-25T07:04:29.500Z,14.90
2017-10-25T07:06:58.767Z,14.90
2017-10-25T07:09:28.023Z,14.80
2017-10-25T07:11:57.352Z,14.80
2017-10-25T07:14:27.366Z,14.90
2017-10-25T07:16:56.647Z,14.90
2017-10-25T07:19:25.907Z,15.00
2017-10-25T07:21:55.177Z,15.00
2017-10-25T07:24:24.571Z,15.10
2017-10-25T07:26:53.922Z,15.00
2017-10-25T07:29:23.230Z,15.00
2017-10-25T07:31:52.491Z,15.00
2017-10-25T07:34:21.753Z,15.10
2017-10-25T07:36:51.047Z,15.20
2017-10-25T07:39:20.306Z,15.30
2017-10-25T07:41:49.714Z,15.40
2017-10-25T07:44:18.974Z,15.40
2017-10-25T07:46:48.256Z,15.50
2017-10-25T07:49:17.596Z,15.50
2017-10-25T07:51:46.866Z,15.50
2017-10-25T07:54:16.150Z,15.50
2017-10-25T07:56:45.413Z,15.50
2017-10-25T07:59:14.735Z,15.50
2017-10-25T08:01:44.193Z,15.60
2017-10-25T08:04:14.243Z,15.60
2017-10-25T08:06:43.527Z,15.60
2017-10-25T08:09:12.788Z,15.60
2017-10-25T08:11:43.594Z,15.40
2017-10-25T08:14:12.841Z,15.40
2017-10-25T08:16:42.242Z,15.40
2017-10-25T08:19:11.552Z,15.50
2017-10-25T08:21:40.831Z,15.50
2017-10-25T08:24:10.098Z,15.50
2017-10-25T08:26:39.366Z,15.60
2017-10-25T08:29:08.638Z,15.80
2017-10-25T08:31:37.910Z,16.00
2017-10-25T08:34:07.173Z,16.00
2017-10-25T08:36:36.470Z,16.10
2017-10-25T08:39:06.482Z,16.10
2017-10-25T08:41:35.765Z,16.10
2017-10-25T08:44:05.788Z,16.20
2017-10-25T08:46:35.835Z,16.10
2017-10-25T08:49:05.697Z,16.10
2017-10-25T08:51:35.008Z,16.20
2017-10-25T08:54:04.281Z,16.20
2017-10-25T08:56:33.560Z,16.20
2017-10-25T08:59:02.826Z,16.30
2017-10-25T09:01:32.239Z,16.40
2017-10-25T09:04:01.512Z,16.50
2017-10-25T09:06:30.771Z,16.60
2017-10-25T09:09:00.055Z,16.70
2017-10-25T09:11:30.068Z,17.00
2017-10-25T09:13:59.351Z,17.00
2017-10-25T09:16:28.754Z,17.20
2017-10-25T09:18:59.104Z,17.10
2017-10-25T09:21:29.139Z,17.20
2017-10-25T09:23:58.393Z,17.20
2017-10-25T09:26:27.667Z,17.60
2017-10-25T09:28:56.935Z,18.00
2017-10-25T09:31:26.189Z,18.40
2017-10-25T09:33:55.476Z,19.10
2017-10-25T09:36:24.768Z,19.50
2017-10-25T09:38:54.143Z,19.60
2017-10-25T09:41:23.421Z,19.50
2017-10-25T09:43:53.436Z,19.10
2017-10-25T09:46:22.723Z,19.00
2017-10-25T09:48:51.959Z,19.40
2017-10-25T09:51:21.227Z,21.00
2017-10-25T09:53:51.244Z,22.20
2017-10-25T09:56:20.674Z,22.20
2017-10-25T09:58:50.206Z,21.80
2017-10-25T10:01:19.491Z,21.20
2017-10-25T10:03:48.769Z,20.70
2017-10-25T10:06:18.070Z,20.50
2017-10-25T10:08:48.185Z,20.40
2017-10-25T10:11:18.343Z,20.80
2017-10-25T10:13:47.585Z,20.80
2017-10-25T10:16:17.078Z,22.00
2017-10-25T10:18:46.358Z,22.90
2017-10-25T10:21:15.605Z,23.70
2017-10-25T10:23:44.885Z,24.20
2017-10-25T10:26:14.159Z,25.20
2017-10-25T10:28:43.418Z,25.50
2017-10-25T10:31:13.442Z,25.20
2017-10-25T10:33:43.576Z,24.80
2017-10-25T10:36:12.951Z,24.80
2017-10-25T10:38:42.332Z,24.00
2017-10-25T10:41:11.583Z,23.90
2017-10-25T10:43:41.065Z,24.10
2017-10-25T10:46:11.099Z,24.00
2017-10-25T10:48:41.153Z,24.00
2017-10-25T10:51:10.611Z,24.00
2017-10-25T10:53:40.630Z,23.00
2017-10-25T10:56:10.160Z,23.00
2017-10-25T10:58:39.415Z,22.90
2017-10-25T11:01:10.194Z,25.20
2017-10-25T11:03:39.463Z,25.20
2017-10-25T11:06:10.351Z,26.80
2017-10-25T11:08:39.619Z,26.70
2017-10-25T11:11:09.661Z,27.50
2017-10-25T11:13:39.132Z,27.40
2017-10-25T11:16:08.386Z,27.60
2017-10-25T11:18:37.634Z,27.90
2017-10-25T11:21:07.698Z,28.20
2017-10-25T11:23:36.938Z,28.10
2017-10-25T11:26:06.194Z,28.80
2017-10-25T11:28:35.541Z,28.70
2017-10-25T11:31:04.781Z,28.70
2017-10-25T11:33:34.183Z,28.30
2017-10-25T11:36:03.489Z,28.30
2017-10-25T11:38:32.734Z,27.90
2017-10-25T11:41:02.015Z,27.80
2017-10-25T11:43:31.259Z,27.20
2017-10-25T11:46:00.493Z,27.50
2017-10-25T11:48:29.771Z,27.70
2017-10-25T11:50:59.783Z,27.30
2017-10-25T11:53:29.816Z,27.50
2017-10-25T11:55:59.053Z,27.40
2017-10-25T11:58:28.314Z,27.40
2017-10-25T12:00:58.332Z,28.40
2017-10-25T12:03:27.570Z,28.40
2017-10-25T12:05:56.853Z,29.10
2017-10-25T12:08:26.101Z,29.50
2017-10-25T12:10:55.354Z,28.80
2017-10-25T12:13:24.606Z,29.10
2017-10-25T12:15:53.880Z,29.10
2017-10-25T12:18:23.146Z,29.40
2017-10-25T12:20:52.456Z,28.90
2017-10-25T12:23:21.951Z,28.90
2017-10-25T12:25:52.381Z,28.50
2017-10-25T12:28:21.615Z,28.50
2017-10-25T12:30:50.889Z,28.50
2017-10-25T12:33:20.152Z,28.60
2017-10-25T12:35:49.438Z,28.60
2017-10-25T12:38:18.718Z,29.00
2017-10-25T12:40:48.148Z,29.10
2017-10-25T12:43:17.606Z,28.80
2017-10-25T12:45:46.875Z,27.70
2017-10-25T12:48:16.912Z,25.40
2017-10-25T12:50:46.157Z,25.30
2017-10-25T12:53:16.559Z,24.60
2017-10-25T12:55:46.001Z,23.90
2017-10-25T12:58:15.419Z,23.40
2017-10-25T13:00:44.685Z,23.00
2017-10-25T13:03:13.948Z,22.70
2017-10-25T13:05:43.190Z,22.40
2017-10-25T13:08:12.481Z,22.30
2017-10-25T13:10:51.199Z,22.10
2017-10-25T13:13:23.781Z,21.90
2017-10-25T13:16:09.830Z,21.70
2017-10-25T13:18:44.875Z,21.60
2017-10-25T13:21:15.183Z,21.60
2017-10-25T13:23:45.210Z,21.50
2017-10-25T13:26:14.482Z,21.50
2017-10-25T13:28:43.742Z,21.60
2017-10-25T13:31:13.035Z,21.40
2017-10-25T13:33:43.030Z,21.30
2017-10-25T13:36:12.303Z,21.30
2017-10-25T13:38:41.590Z,21.20
2017-10-25T13:41:12.991Z,21.30
2017-10-25T13:43:42.252Z,21.30
2017-10-25T13:46:11.502Z,21.20
2017-10-25T13:48:40.741Z,21.00
2017-10-25T13:51:10.003Z,21.00
2017-10-25T13:53:39.331Z,20.80
2017-10-25T13:56:09.422Z,20.70
2017-10-25T13:58:38.682Z,20.70
2017-10-25T14:01:07.935Z,20.60
2017-10-25T14:03:37.193Z,20.50
2017-10-25T14:06:06.462Z,20.40
2017-10-25T14:08:35.722Z,20.50
2017-10-25T14:11:04.973Z,20.30
2017-10-25T14:13:34.425Z,20.40
2017-10-25T14:16:04.455Z,20.10
2017-10-25T14:18:33.744Z,20.10
2017-10-25T14:21:03.142Z,20.20
2017-10-25T14:23:33.172Z,20.20
2017-10-25T14:26:02.463Z,20.20
2017-10-25T14:28:45.178Z,20.20
2017-10-25T14:31:15.212Z,19.90
2017-10-25T14:33:44.470Z,21.20
2017-10-25T14:36:13.736Z,19.70
2017-10-25T14:38:42.999Z,19.50
2017-10-25T14:41:13.015Z,19.30
2017-10-25T14:43:42.295Z,19.30
2017-10-25T14:46:12.332Z,19.30
2017-10-25T14:48:42.371Z,19.30
2017-10-25T14:51:11.672Z,19.30
2017-10-25T14:53:40.938Z,19.30
2017-10-25T14:56:10.227Z,19.30
2017-10-25T14:58:39.515Z,19.20
2017-10-25T15:01:08.832Z,19.10
2017-10-25T15:03:38.282Z,19.10
2017-10-25T15:06:08.293Z,19.10
2017-10-25T15:08:37.692Z,18.90
2017-10-25T15:11:07.703Z,18.50
2017-10-25T15:13:37.006Z,18.50
2017-10-25T15:16:06.406Z,18.30
2017-10-25T15:18:36.626Z,18.10
2017-10-25T15:21:05.959Z,18.00
2017-10-25T15:23:35.232Z,17.90
2017-10-25T15:26:04.504Z,17.90
2017-10-25T15:28:33.762Z,17.80
2017-10-25T15:31:03.256Z,17.70
2017-10-25T15:33:33.262Z,17.60
2017-10-25T15:36:02.533Z,17.60
2017-10-25T15:38:33.285Z,17.30
2017-10-25T15:41:02.562Z,17.30
2017-10-25T15:43:31.831Z,17.10
2017-10-25T15:46:01.422Z,16.90
2017-10-25T15:48:32.178Z,16.50
2017-10-25T15:51:01.518Z,16.50
2017-10-25T15:53:30.783Z,16.40
2017-10-25T15:56:00.040Z,16.30
2017-10-25T15:58:29.660Z,16.10
2017-10-25T16:00:59.674Z,15.70
2017-10-25T16:03:28.947Z,15.70
2017-10-25T16:05:58.366Z,15.60
2017-10-25T16:08:27.663Z,15.40
2017-10-25T16:10:57.586Z,15.30
2017-10-25T16:13:27.823Z,15.30
2017-10-25T16:15:57.133Z,15.20
2017-10-25T16:18:26.391Z,15.10
2017-10-25T16:20:57.144Z,15.00
2017-10-25T16:23:26.543Z,15.00
2017-10-25T16:25:55.826Z,15.00
2017-10-25T16:28:25.144Z,14.90
2017-10-25T16:30:54.455Z,14.70
2017-10-25T16:33:24.491Z,14.60
2017-10-25T16:35:53.743Z,14.60
2017-10-25T16:38:23.020Z,14.40
2017-10-25T16:40:52.474Z,14.40
2017-10-25T16:43:22.505Z,14.30
2017-10-25T16:45:51.786Z,14.30
2017-10-25T16:48:21.198Z,14.20
2017-10-25T16:50:51.221Z,14.30
2017-10-25T16:53:20.681Z,14.20
2017-10-25T16:55:50.744Z,14.20
2017-10-25T16:58:19.999Z,14.20
2017-10-25T17:00:49.253Z,14.20
2017-10-25T17:03:18.669Z,14.20
2017-10-25T17:05:47.953Z,14.20
2017-10-25T17:08:17.984Z,14.10
2017-10-25T17:10:47.232Z,14.10
2017-10-25T17:13:16.492Z,14.00
2017-10-25T17:15:45.848Z,13.90
2017-10-25T17:18:15.127Z,14.10
2017-10-25T17:20:44.596Z,14.10
2017-10-25T17:23:14.106Z,14.00
2017-10-25T17:25:43.314Z,13.90
2017-10-25T17:28:12.593Z,13.70
2017-10-25T17:30:41.869Z,13.50
2017-10-25T17:33:11.212Z,13.40
2017-10-25T17:35:40.473Z,13.20
2017-10-25T17:38:09.760Z,13.10
2017-10-25T17:40:39.082Z,13.00
2017-10-25T17:43:09.861Z,12.70
2017-10-25T17:45:39.117Z,12.70
2017-10-25T17:48:08.738Z,12.60
2017-10-25T17:50:38.043Z,12.60
2017-10-25T17:53:08.126Z,12.40
2017-10-25T17:55:37.382Z,12.40
2017-10-25T17:58:06.990Z,12.40
2017-10-25T18:00:36.311Z,12.40
2017-10-25T18:03:05.564Z,12.30
2017-10-25T18:05:34.823Z,12.30
2017-10-25T18:08:04.086Z,12.30
2017-10-25T18:10:33.483Z,12.40
2017-10-25T18:13:03.594Z,12.30
2017-10-25T18:15:33.826Z,12.40
2017-10-25T18:18:03.258Z,12.30
2017-10-25T18:20:32.605Z,12.40
2017-10-25T18:23:03.398Z,12.40
2017-10-25T18:25:32.666Z,12.40
2017-10-25T18:28:01.932Z,12.40
2017-10-25T18:30:31.297Z,12.30
2017-10-25T18:33:00.555Z,12.40
2017-10-25T18:35:29.847Z,12.50
2017-10-25T18:37:59.099Z,12.40
2017-10-25T18:40:28.373Z,12.50
2017-10-25T18:42:58.398Z,12.50
2017-10-25T18:45:28.643Z,12.50
2017-10-25T18:47:57.934Z,12.50
2017-10-25T18:50:27.203Z,12.50
2017-10-25T18:52:56.479Z,12.50
2017-10-25T18:55:25.738Z,12.50
2017-10-25T18:57:54.987Z,12.50
2017-10-25T19:00:24.264Z,12.50
2017-10-25T19:02:53.507Z,12.50
2017-10-25T19:05:22.767Z,12.50
2017-10-25T19:07:52.030Z,12.50
2017-10-25T19:10:21.322Z,12.50
2017-10-25T19:12:50.579Z,12.50
2017-10-25T19:15:19.827Z,12.60
2017-10-25T19:17:49.851Z,12.60
2017-10-25T19:20:19.142Z,12.60
2017-10-25T19:22:48.425Z,12.60
2017-10-25T19:25:17.672Z,12.60
2017-10-25T19:27:46.931Z,12.70
2017-10-25T19:30:16.196Z,12.70
2017-10-25T19:32:45.446Z,12.70
2017-10-25T19:35:14.733Z,12.60
2017-10-25T19:37:44.759Z,12.60
2017-10-25T19:40:14.805Z,12.50
2017-10-25T19:42:44.097Z,12.40
2017-10-25T19:45:13.346Z,12.50
2017-10-25T19:47:42.803Z,12.50
2017-10-25T19:50:12.078Z,12.40
2017-10-25T19:52:41.338Z,12.50
2017-10-25T19:55:10.720Z,12.50
2017-10-25T19:57:39.992Z,12.50
2017-10-25T20:00:09.312Z,12.50
2017-10-25T20:02:38.555Z,12.40
2017-10-25T20:05:07.823Z,12.50
2017-10-25T20:07:37.191Z,12.50
2017-10-25T20:10:07.318Z,12.60
2017-10-25T20:12:37.346Z,12.60
2017-10-25T20:15:06.604Z,12.60
2017-10-25T20:17:35.874Z,12.80
2017-10-25T20:20:05.128Z,12.80
2017-10-25T20:22:34.398Z,12.90
2017-10-25T20:25:03.764Z,13.00
2017-10-25T20:27:33.187Z,13.00
2017-10-25T20:30:02.574Z,13.10
2017-10-25T20:32:31.838Z,13.20
2017-10-25T20:35:01.158Z,13.20
2017-10-25T20:37:31.176Z,13.20
2017-10-25T20:40:00.429Z,13.20
2017-10-25T20:42:29.923Z,13.20
2017-10-25T20:44:59.178Z,13.10
2017-10-25T20:47:29.215Z,13.00
2017-10-25T20:49:58.481Z,12.90
2017-10-25T20:52:27.773Z,13.00
2017-10-25T20:54:57.190Z,12.90
2017-10-25T20:57:26.442Z,13.00
2017-10-25T20:59:55.806Z,13.00
2017-10-25T21:02:25.066Z,13.00
2017-10-25T21:04:54.346Z,13.00
2017-10-25T21:07:23.595Z,13.10
2017-10-25T21:09:52.884Z,13.20
2017-10-25T21:12:22.155Z,13.20
2017-10-25T21:14:51.610Z,13.20
2017-10-25T21:17:21.741Z,13.30
2017-10-25T21:19:51.773Z,13.20
2017-10-25T21:22:21.012Z,13.20
2017-10-25T21:24:50.290Z,13.20
2017-10-25T21:27:19.575Z,13.10
2017-10-25T21:29:48.873Z,12.90
2017-10-25T21:32:18.895Z,12.80
2017-10-25T21:34:48.150Z,12.80
2017-10-25T21:37:17.473Z,12.80
2017-10-25T21:39:46.863Z,12.70
2017-10-25T21:42:16.927Z,12.80
2017-10-25T21:44:46.247Z,12.80
2017-10-25T21:47:15.619Z,12.70
2017-10-25T21:49:45.634Z,12.60
2017-10-25T21:52:15.018Z,12.60
2017-10-25T21:54:44.268Z,12.60
2017-10-25T21:57:13.789Z,12.50
2017-10-25T21:59:43.058Z,12.50
2017-10-25T22:02:12.310Z,12.40
2017-10-25T22:04:41.702Z,12.30
2017-10-25T22:07:11.046Z,12.30
2017-10-25T22:09:41.169Z,12.20
2017-10-25T22:12:11.207Z,12.10
2017-10-25T22:14:40.463Z,12.10
2017-10-25T22:17:11.245Z,11.90
2017-10-25T22:19:40.500Z,11.90
2017-10-25T22:22:09.918Z,11.80
2017-10-25T22:24:39.977Z,11.60
2017-10-25T22:27:09.213Z,11.60
2017-10-25T22:29:38.589Z,11.60
2017-10-25T22:32:07.849Z,11.50
2017-10-25T22:34:37.116Z,11.40
2017-10-25T22:37:06.377Z,11.40
2017-10-25T22:39:35.686Z,11.30
2017-10-25T22:42:04.938Z,11.30
2017-10-25T22:44:34.970Z,11.30
2017-10-25T22:47:04.347Z,11.30
2017-10-25T22:49:33.592Z,11.20
2017-10-25T22:52:02.865Z,11.20
2017-10-25T22:54:32.268Z,11.20
2017-10-25T22:57:02.286Z,11.20
2017-10-25T22:59:31.898Z,11.20
2017-10-25T23:02:01.937Z,11.10
2017-10-25T23:04:31.317Z,11.10
2017-10-25T23:07:00.592Z,11.00
2017-10-25T23:09:29.906Z,11.00
2017-10-25T23:11:59.184Z,10.90
2017-10-25T23:14:28.523Z,10.90
2017-10-25T23:16:58.577Z,10.90
2017-10-25T23:19:27.815Z,10.90
2017-10-25T23:21:57.070Z,10.90
2017-10-25T23:24:26.523Z,10.80
2017-10-25T23:26:55.798Z,10.80
2017-10-25T23:29:25.054Z,10.70
2017-10-25T23:31:54.346Z,10.70
2017-10-25T23:34:24.378Z,10.70
2017-10-25T23:36:54.461Z,10.50
2017-10-25T23:39:23.729Z,10.50
2017-10-25T23:41:53.727Z,10.50
2017-10-25T23:44:22.982Z,10.50
2017-10-25T23:46:52.242Z,10.50
2017-10-25T23:49:21.640Z,10.50
2017-10-25T23:51:50.920Z,10.50
2017-10-25T23:54:21.493Z,10.40
2017-10-25T23:56:50.796Z,10.40
2017-10-25T23:59:20.042Z,10.40
